createdAt,value
2022-09-27T00:02:25.260Z,99057.13
2022-09-27T00:05:10.882Z,99033.03
2022-09-27T00:07:56.954Z,99048.53
2022-09-27T00:10:43.509Z,99029.31
2022-09-27T00:13:30.377Z,99026.09
2022-09-27T00:16:16.361Z,99033.63
2022-09-27T00:19:08.527Z,99040.78
2022-09-27T00:21:54.448Z,99030.50
2022-09-27T00:24:39.895Z,99035.53
2022-09-27T00:27:26.656Z,99035.03
2022-09-27T00:30:13.470Z,99041.63
2022-09-27T00:32:59.179Z,99019.09
2022-09-27T00:35:44.816Z,99030.50
2022-09-27T00:38:30.002Z,99013.59
2022-09-27T00:41:19.481Z,99021.34
2022-09-27T00:44:28.471Z,99023.38
2022-09-27T00:47:25.863Z,99014.44
2022-09-27T00:50:42.398Z,99007.53
2022-09-27T00:53:36.670Z,99010.94
2022-09-27T00:56:28.002Z,99008.47
2022-09-27T00:59:22.976Z,98997.50
2022-09-27T01:02:08.598Z,99007.13
2022-09-27T01:04:55.692Z,98987.97
2022-09-27T01:07:41.748Z,98994.38
2022-09-27T01:10:39.485Z,98990.34
2022-09-27T01:13:40.495Z,98984.72
2022-09-27T01:16:54.358Z,98983.91
2022-09-27T01:22:34.471Z,98972.69
2022-09-27T01:25:50.465Z,98971.50
2022-09-27T01:29:10.389Z,98967.53
2022-09-27T01:32:02.530Z,98975.19
2022-09-27T01:35:02.429Z,98973.28
2022-09-27T01:38:03.246Z,98965.75
2022-09-27T01:41:01.716Z,98959.00
2022-09-27T01:43:55.138Z,98958.88
2022-09-27T01:46:49.813Z,98971.97
2022-09-27T01:49:42.159Z,98959.53
2022-09-27T01:52:40.959Z,98960.16
2022-09-27T01:55:31.324Z,98946.22
2022-09-27T01:58:42.552Z,98949.06
2022-09-27T02:01:31.121Z,98943.94
2022-09-27T02:04:22.362Z,98939.88
2022-09-27T02:07:29.958Z,98939.88
2022-09-27T02:10:21.780Z,98933.56
2022-09-27T02:13:33.401Z,98936.06
2022-09-27T02:16:39.960Z,98927.84
2022-09-27T02:19:51.013Z,98931.44
2022-09-27T02:22:42.349Z,98917.47
2022-09-27T02:25:55.265Z,98920.19
2022-09-27T02:28:50.191Z,98919.97
2022-09-27T02:31:35.826Z,98912.34
2022-09-27T02:34:27.432Z,98924.38
2022-09-27T02:37:13.436Z,98914.59
2022-09-27T02:39:58.858Z,98911.16
2022-09-27T02:42:45.442Z,98915.28
2022-09-27T02:45:44.989Z,98909.19
2022-09-27T02:48:56.852Z,98908.50
2022-09-27T02:51:53.937Z,98903.25
2022-09-27T02:54:57.675Z,98915.41
2022-09-27T02:57:48.774Z,98911.38
2022-09-27T03:00:47.213Z,98903.50
2022-09-27T03:03:44.575Z,98909.69
2022-09-27T03:06:32.553Z,98894.44
2022-09-27T03:09:27.952Z,98905.50
2022-09-27T03:12:14.032Z,98906.00
2022-09-27T03:15:00.345Z,98901.72
2022-09-27T03:17:45.909Z,98883.59
2022-09-27T03:20:31.594Z,98891.09
2022-09-27T03:23:16.969Z,98891.31
2022-09-27T03:26:02.851Z,98887.53
2022-09-27T03:28:48.311Z,98874.72
2022-09-27T03:31:33.590Z,98875.84
2022-09-27T03:34:19.214Z,98877.72
2022-09-27T03:37:04.748Z,98862.25
2022-09-27T03:39:50.165Z,98871.31
2022-09-27T03:42:35.773Z,98871.03
2022-09-27T03:45:21.764Z,98865.56
2022-09-27T03:48:07.457Z,98865.22
2022-09-27T03:50:53.093Z,98866.13
2022-09-27T03:53:38.465Z,98865.09
2022-09-27T03:56:23.712Z,98865.28
2022-09-27T03:59:08.976Z,98860.31
2022-09-27T04:01:54.675Z,98867.00
2022-09-27T04:04:40.439Z,98845.22
2022-09-27T04:07:26.018Z,98858.28
2022-09-27T04:10:11.528Z,98854.34
2022-09-27T04:12:57.295Z,98836.28
2022-09-27T04:15:43.343Z,98850.81
2022-09-27T04:18:29.475Z,98860.47
2022-09-27T04:21:14.906Z,98868.91
2022-09-27T04:24:00.607Z,98850.47
2022-09-27T04:26:46.887Z,98850.09
2022-09-27T04:29:32.343Z,98853.22
2022-09-27T04:32:17.985Z,98839.69
2022-09-27T04:35:22.637Z,98854.44
2022-09-27T04:38:08.178Z,98852.94
2022-09-27T04:40:53.859Z,98857.06
2022-09-27T04:43:39.335Z,98863.25
2022-09-27T04:46:24.908Z,98844.66
2022-09-27T04:49:10.334Z,98857.41
2022-09-27T04:51:56.439Z,98857.78
2022-09-27T04:54:42.281Z,98837.06
2022-09-27T04:57:27.782Z,98846.69
2022-09-27T05:00:14.097Z,98856.16
2022-09-27T05:02:59.712Z,98851.22
2022-09-27T05:05:45.246Z,98860.75
2022-09-27T05:08:30.817Z,98858.97
2022-09-27T05:11:16.182Z,98871.25
2022-09-27T05:14:01.830Z,98856.97
2022-09-27T05:16:47.759Z,98860.19
2022-09-27T05:19:34.265Z,98858.69
2022-09-27T05:22:20.097Z,98871.38
2022-09-27T05:25:05.786Z,98846.38
2022-09-27T05:27:51.606Z,98848.97
2022-09-27T05:30:37.093Z,98865.63
2022-09-27T05:33:22.752Z,98851.72
2022-09-27T05:36:08.870Z,98843.03
2022-09-27T05:38:54.341Z,98860.38
2022-09-27T05:41:41.131Z,98856.22
2022-09-27T05:44:27.005Z,98858.72
2022-09-27T05:47:12.561Z,98855.78
2022-09-27T05:49:58.184Z,98864.75
2022-09-27T05:52:43.913Z,98860.91
2022-09-27T05:55:30.103Z,98875.19
2022-09-27T05:58:16.218Z,98855.66
2022-09-27T06:01:01.837Z,98869.50
2022-09-27T06:03:47.735Z,98864.28
2022-09-27T06:06:36.851Z,98871.66
2022-09-27T06:09:22.568Z,98866.22
2022-09-27T06:12:11.755Z,98864.66
2022-09-27T06:14:57.316Z,98870.31
2022-09-27T06:17:42.917Z,98869.84
2022-09-27T06:20:28.273Z,98865.31
2022-09-27T06:23:19.460Z,98860.22
2022-09-27T06:26:07.929Z,98866.03
2022-09-27T06:28:54.794Z,98855.38
2022-09-27T06:31:40.359Z,98865.66
2022-09-27T06:34:25.697Z,98859.56
2022-09-27T06:37:11.530Z,98861.91
2022-09-27T06:39:57.288Z,98858.28
2022-09-27T06:42:42.683Z,98883.09
2022-09-27T06:45:28.457Z,98869.13
2022-09-27T06:48:16.176Z,98886.16
2022-09-27T06:51:02.468Z,98893.44
2022-09-27T06:53:47.999Z,98881.94
2022-09-27T06:56:33.648Z,98899.69
2022-09-27T06:59:37.385Z,98899.97
2022-09-27T07:02:22.967Z,98903.56
2022-09-27T07:05:10.270Z,98902.81
2022-09-27T07:07:57.807Z,98911.78
2022-09-27T07:10:43.076Z,98915.69
2022-09-27T07:13:32.658Z,98907.25
2022-09-27T07:16:18.998Z,98914.28
2022-09-27T07:19:07.607Z,98916.25
2022-09-27T07:21:52.785Z,98909.44
2022-09-27T07:24:38.303Z,98932.72
2022-09-27T07:27:26.425Z,98934.03
2022-09-27T07:30:12.903Z,98929.97
2022-09-27T07:32:59.848Z,98928.50
2022-09-27T07:35:45.637Z,98930.06
2022-09-27T07:38:30.968Z,98927.00
2022-09-27T07:41:16.931Z,98935.66
2022-09-27T07:44:02.744Z,98933.91
2022-09-27T07:46:48.060Z,98943.09
2022-09-27T07:49:33.806Z,98938.19
2022-09-27T07:52:20.739Z,98933.59
2022-09-27T07:55:07.062Z,98940.28
2022-09-27T07:57:53.600Z,98945.28
2022-09-27T08:00:40.929Z,98953.28
2022-09-27T08:03:27.081Z,98950.19
2022-09-27T08:06:12.723Z,98956.09
2022-09-27T08:09:01.670Z,98957.59
2022-09-27T08:11:48.416Z,98959.16
2022-09-27T08:14:41.001Z,98966.34
2022-09-27T08:17:29.051Z,98971.19
2022-09-27T08:20:14.551Z,98955.47
2022-09-27T08:22:59.868Z,98982.47
2022-09-27T08:25:52.394Z,98975.00
2022-09-27T08:28:37.833Z,98980.22
2022-09-27T08:31:25.378Z,98979.31
2022-09-27T08:34:10.894Z,98991.41
2022-09-27T08:36:56.245Z,98998.22
2022-09-27T08:39:44.461Z,98985.63
2022-09-27T08:42:53.194Z,98986.50
2022-09-27T08:46:14.989Z,98999.22
2022-09-27T08:49:14.154Z,98998.91
2022-09-27T08:52:01.039Z,98995.19
2022-09-27T08:54:48.041Z,99004.06
2022-09-27T08:57:33.366Z,98990.09
2022-09-27T09:00:18.717Z,98994.09
2022-09-27T09:03:04.064Z,99004.94
2022-09-27T09:06:07.721Z,98986.09
2022-09-27T09:09:38.778Z,99005.00
2022-09-27T09:12:49.887Z,99009.94
2022-09-27T09:15:56.728Z,99009.47
2022-09-27T09:19:06.821Z,99009.34
2022-09-27T09:22:15.519Z,99001.41
2022-09-27T09:25:10.481Z,99010.91
2022-09-27T09:28:20.492Z,99004.47
2022-09-27T09:31:31.644Z,99004.69
2022-09-27T09:34:36.914Z,99002.25
2022-09-27T09:37:32.725Z,99008.44
2022-09-27T09:40:25.053Z,99006.38
2022-09-27T09:43:14.015Z,99010.59
2022-09-27T09:46:10.383Z,99015.53
2022-09-27T09:49:04.917Z,99019.47
2022-09-27T09:51:59.069Z,99015.75
2022-09-27T09:54:55.782Z,99007.59
2022-09-27T09:57:51.149Z,99013.31
2022-09-27T10:00:38.936Z,99021.56
2022-09-27T10:03:24.605Z,99011.34
2022-09-27T10:06:11.837Z,98998.81
2022-09-27T10:09:00.785Z,99005.75
2022-09-27T10:11:47.225Z,99011.91
2022-09-27T10:14:33.567Z,99000.84
2022-09-27T10:17:23.069Z,99016.56
2022-09-27T10:20:27.112Z,99014.41
2022-09-27T10:23:21.399Z,99007.13
2022-09-27T10:26:09.039Z,99009.16
2022-09-27T10:28:54.455Z,99018.88
2022-09-27T10:31:43.594Z,99022.16
2022-09-27T10:34:38.461Z,99023.34
2022-09-27T10:37:25.034Z,99020.53
2022-09-27T10:40:31.806Z,99026.56
2022-09-27T10:43:29.440Z,99027.34
2022-09-27T10:46:35.646Z,99024.91
2022-09-27T10:49:27.665Z,99029.41
2022-09-27T10:52:21.611Z,99019.94
2022-09-27T10:55:25.665Z,99043.09
2022-09-27T10:58:30.939Z,99033.66
2022-09-27T11:01:16.413Z,99020.91
2022-09-27T11:04:01.830Z,99035.69
2022-09-27T11:06:48.902Z,99044.75
2022-09-27T11:09:46.646Z,99044.03
2022-09-27T11:12:32.303Z,99036.41
2022-09-27T11:15:24.304Z,99041.59
2022-09-27T11:18:27.837Z,99039.06
2022-09-27T11:21:25.589Z,99042.94
2022-09-27T11:24:22.984Z,99044.09
2022-09-27T11:27:23.509Z,99048.81
2022-09-27T11:30:13.368Z,99059.56
2022-09-27T11:33:38.822Z,99065.34
2022-09-27T11:36:42.633Z,99066.00
2022-09-27T11:39:36.547Z,99062.69
2022-09-27T11:42:44.983Z,99033.41
2022-09-27T11:46:15.457Z,99057.00
2022-09-27T11:49:48.031Z,99044.13
2022-09-27T11:52:51.279Z,99053.59
2022-09-27T11:56:04.901Z,99048.50
2022-09-27T11:58:53.318Z,99041.09
2022-09-27T12:01:44.374Z,99052.09
2022-09-27T12:04:42.477Z,99053.53
2022-09-27T12:07:53.006Z,99052.94
2022-09-27T12:10:41.805Z,99037.75
2022-09-27T12:13:34.677Z,99058.56
2022-09-27T12:16:23.262Z,99055.16
2022-09-27T12:19:18.098Z,99068.94
2022-09-27T12:22:12.719Z,99070.88
2022-09-27T12:24:58.361Z,99075.31
2022-09-27T12:27:49.504Z,99079.41
2022-09-27T12:30:40.256Z,99084.94
2022-09-27T12:33:39.012Z,99089.41
2022-09-27T12:36:31.999Z,99080.44
2022-09-27T12:39:44.671Z,99095.34
2022-09-27T12:42:50.123Z,99098.28
2022-09-27T12:45:49.413Z,99091.59
2022-09-27T12:49:09.828Z,99108.06
2022-09-27T12:52:09.156Z,99082.97
2022-09-27T12:55:08.948Z,99087.63
2022-09-27T12:58:23.512Z,99085.38
2022-09-27T13:01:49.912Z,99093.28
2022-09-27T13:05:10.616Z,99098.34
2022-09-27T13:08:22.911Z,99091.16
2022-09-27T13:11:35.239Z,99086.31
2022-09-27T13:14:25.287Z,99088.25
2022-09-27T13:17:42.974Z,99105.44
2022-09-27T13:20:31.287Z,99099.75
2022-09-27T13:23:19.138Z,99099.59
2022-09-27T13:26:07.827Z,99104.88
2022-09-27T13:28:58.176Z,99107.41
2022-09-27T13:32:03.821Z,99100.75
2022-09-27T13:34:52.666Z,99116.28
2022-09-27T13:37:47.414Z,99113.28
2022-09-27T13:40:36.647Z,99127.25
2022-09-27T13:43:41.474Z,99121.63
2022-09-27T13:46:30.336Z,99126.91
2022-09-27T13:49:21.963Z,99142.31
2022-09-27T13:52:27.513Z,99149.44
2022-09-27T13:55:41.055Z,99144.44
2022-09-27T13:58:54.783Z,99155.84
2022-09-27T14:01:48.290Z,99141.59
2022-09-27T14:04:43.760Z,99131.44
2022-09-27T14:07:42.677Z,99143.81
2022-09-27T14:10:30.585Z,99158.00
2022-09-27T14:13:20.375Z,99150.88
2022-09-27T14:16:07.295Z,99150.59
2022-09-27T14:19:00.315Z,99147.34
2022-09-27T14:21:49.261Z,99153.16
2022-09-27T14:24:38.353Z,99165.97
2022-09-27T14:27:27.655Z,99161.28
2022-09-27T14:30:18.193Z,99159.94
2022-09-27T14:33:05.170Z,99165.97
2022-09-27T14:36:11.621Z,99163.50
2022-09-27T14:38:57.914Z,99175.69
2022-09-27T14:41:44.593Z,99171.53
2022-09-27T14:44:31.526Z,99168.81
2022-09-27T14:47:25.464Z,99181.69
2022-09-27T14:50:25.306Z,99181.94
2022-09-27T14:53:25.145Z,99183.00
2022-09-27T14:56:19.145Z,99203.84
2022-09-27T14:59:14.102Z,99191.28
2022-09-27T15:02:03.674Z,99192.81
2022-09-27T15:04:51.446Z,99196.66
2022-09-27T15:07:37.078Z,99198.31
2022-09-27T15:10:28.505Z,99191.25
2022-09-27T15:13:18.645Z,99201.78
2022-09-27T15:16:19.411Z,99208.41
2022-09-27T15:19:17.947Z,99193.25
2022-09-27T15:22:24.347Z,99210.91
2022-09-27T15:25:22.295Z,99209.03
2022-09-27T15:28:11.418Z,99211.16
2022-09-27T15:30:58.512Z,99208.09
2022-09-27T15:33:54.630Z,99204.59
2022-09-27T15:36:53.527Z,99196.63
2022-09-27T15:39:41.937Z,99212.97
2022-09-27T15:42:27.875Z,99209.31
2022-09-27T15:45:39.441Z,99225.78
2022-09-27T15:48:25.318Z,99232.59
2022-09-27T15:51:40.315Z,99230.94
2022-09-27T15:54:30.953Z,99236.31
2022-09-27T15:57:16.943Z,99222.56
2022-09-27T16:00:03.775Z,99230.31
2022-09-27T16:02:50.037Z,99238.81
2022-09-27T16:05:35.343Z,99221.84
2022-09-27T16:08:21.855Z,99226.50
2022-09-27T16:11:15.257Z,99240.25
2022-09-27T16:14:01.221Z,99241.53
2022-09-27T16:16:50.741Z,99251.09
2022-09-27T16:19:37.229Z,99233.78
2022-09-27T16:22:24.290Z,99242.38
2022-09-27T16:25:10.225Z,99237.31
2022-09-27T16:28:00.083Z,99245.69
2022-09-27T16:30:46.108Z,99228.72
2022-09-27T16:33:33.538Z,99253.53
2022-09-27T16:36:20.585Z,99249.00
2022-09-27T16:39:10.358Z,99246.63
2022-09-27T16:41:56.201Z,99238.75
2022-09-27T16:44:42.477Z,99248.41
2022-09-27T16:47:29.471Z,99250.75
2022-09-27T16:50:34.488Z,99251.69
2022-09-27T16:53:20.469Z,99257.66
2022-09-27T16:56:06.373Z,99259.69
2022-09-27T16:58:54.059Z,99259.94
2022-09-27T17:01:39.708Z,99254.78
2022-09-27T17:04:27.816Z,99259.06
2022-09-27T17:07:13.288Z,99258.59
2022-09-27T17:09:59.748Z,99276.84
2022-09-27T17:12:49.776Z,99265.50
2022-09-27T17:15:37.584Z,99275.19
2022-09-27T17:18:24.253Z,99267.84
2022-09-27T17:21:10.079Z,99280.88
2022-09-27T17:23:55.549Z,99281.75
2022-09-27T17:26:41.797Z,99278.13
2022-09-27T17:29:28.046Z,99265.44
2022-09-27T17:32:14.113Z,99279.50
2022-09-27T17:35:00.059Z,99271.25
2022-09-27T17:37:51.157Z,99270.28
2022-09-27T17:40:37.310Z,99251.03
2022-09-27T17:43:24.351Z,99281.94
2022-09-27T17:46:10.213Z,99262.81
2022-09-27T17:49:15.347Z,99279.63
2022-09-27T17:52:01.264Z,99289.81
2022-09-27T17:54:47.400Z,99282.06
2022-09-27T17:57:33.002Z,99294.75
2022-09-27T18:00:20.706Z,99288.78
2022-09-27T18:03:08.056Z,99292.25
2022-09-27T18:05:53.891Z,99295.72
2022-09-27T18:08:40.924Z,99302.63
2022-09-27T18:11:29.858Z,99299.38
2022-09-27T18:14:16.745Z,99302.19
2022-09-27T18:17:02.798Z,99295.91
2022-09-27T18:19:48.712Z,99300.72
2022-09-27T18:22:36.282Z,99295.50
2022-09-27T18:25:25.340Z,99298.72
2022-09-27T18:28:11.282Z,99311.19
2022-09-27T18:31:06.458Z,99310.72
2022-09-27T18:33:52.266Z,99306.31
2022-09-27T18:36:41.010Z,99313.75
2022-09-27T18:39:27.726Z,99301.38
2022-09-27T18:42:13.380Z,99324.44
2022-09-27T18:44:59.139Z,99324.00
2022-09-27T18:47:44.886Z,99319.28
2022-09-27T18:50:34.949Z,99325.47
2022-09-27T18:53:20.382Z,99326.75
2022-09-27T18:56:11.400Z,99328.75
2022-09-27T18:58:58.367Z,99332.19
2022-09-27T19:01:47.548Z,99322.78
2022-09-27T19:04:33.751Z,99325.38
2022-09-27T19:07:19.016Z,99327.69
2022-09-27T19:10:05.095Z,99327.34
2022-09-27T19:12:51.461Z,99327.91
2022-09-27T19:15:37.190Z,99331.06
2022-09-27T19:18:25.121Z,99321.84
2022-09-27T19:21:15.667Z,99335.75
2022-09-27T19:24:01.553Z,99317.63
2022-09-27T19:34:47.744Z,99328.84
2022-09-27T19:37:33.161Z,99334.94
2022-09-27T19:40:18.735Z,99319.19
2022-09-27T19:43:04.141Z,99314.59
2022-09-27T19:45:49.630Z,99313.94
2022-09-27T19:48:38.548Z,99319.41
2022-09-27T19:51:26.127Z,99328.81
2022-09-27T19:54:11.894Z,99334.09
2022-09-27T19:56:57.172Z,99325.03
2022-09-27T19:59:43.040Z,99323.25
2022-09-27T20:02:28.534Z,99323.25
2022-09-27T20:05:13.892Z,99319.91
2022-09-27T20:07:59.531Z,99313.94
2022-09-27T20:10:53.145Z,99332.69
2022-09-27T20:13:39.627Z,99301.69
2022-09-27T20:16:26.730Z,99318.25
2022-09-27T20:19:12.320Z,99335.50
2022-09-27T20:21:57.725Z,99312.16
2022-09-27T20:24:43.301Z,99334.88
2022-09-27T20:27:28.804Z,99337.41
2022-09-27T20:30:15.232Z,99330.50
2022-09-27T20:33:19.382Z,99324.22
2022-09-27T20:36:05.012Z,99328.84
2022-09-27T20:39:01.226Z,99328.13
2022-09-27T20:41:47.724Z,99311.75
2022-09-27T20:44:33.398Z,99311.84
2022-09-27T20:47:18.851Z,99322.03
2022-09-27T20:50:04.543Z,99318.75
2022-09-27T20:52:50.701Z,99322.41
2022-09-27T20:55:36.729Z,99315.72
2022-09-27T20:58:23.183Z,99314.38
2022-09-27T21:01:09.043Z,99323.31
2022-09-27T21:03:59.041Z,99309.88
2022-09-27T21:06:44.742Z,99323.50
2022-09-27T21:09:30.426Z,99328.19
2022-09-27T21:12:16.281Z,99306.41
2022-09-27T21:15:01.821Z,99327.47
2022-09-27T21:17:47.090Z,99325.25
2022-09-27T21:20:32.810Z,99315.94
2022-09-27T21:23:18.458Z,99334.16
2022-09-27T21:26:09.524Z,99329.66
2022-09-27T21:28:56.963Z,99320.34
2022-09-27T21:31:42.778Z,99338.44
2022-09-27T21:34:28.370Z,99332.16
2022-09-27T21:37:13.948Z,99333.50
2022-09-27T21:40:00.822Z,99334.97
2022-09-27T21:42:53.308Z,99338.03
2022-09-27T21:45:41.083Z,99326.94
2022-09-27T21:48:26.391Z,99323.16
2022-09-27T21:51:13.415Z,99349.69
2022-09-27T21:54:04.007Z,99341.72
2022-09-27T21:56:49.569Z,99345.03
2022-09-27T21:59:34.921Z,99340.13
2022-09-27T22:02:20.579Z,99340.00
2022-09-27T22:05:06.470Z,99343.28
2022-09-27T22:07:51.759Z,99351.88
2022-09-27T22:10:37.140Z,99347.13
2022-09-27T22:13:22.669Z,99344.00
2022-09-27T22:16:10.728Z,99350.19
2022-09-27T22:18:57.859Z,99339.50
2022-09-27T22:21:43.398Z,99350.16
2022-09-27T22:24:29.052Z,99344.31
2022-09-27T22:27:14.844Z,99342.31
2022-09-27T22:30:00.259Z,99333.53
2022-09-27T22:32:45.906Z,99357.50
2022-09-27T22:35:31.790Z,99347.44
2022-09-27T22:38:17.127Z,99335.50
2022-09-27T22:41:03.330Z,99356.25
2022-09-27T22:43:49.038Z,99356.25
2022-09-27T22:46:35.367Z,99336.94
2022-09-27T22:49:20.898Z,99345.13
2022-09-27T22:52:06.072Z,99355.59
2022-09-27T22:54:52.185Z,99335.06
2022-09-27T22:57:37.459Z,99358.22
2022-09-27T23:00:22.755Z,99344.72
2022-09-27T23:03:08.316Z,99355.94
2022-09-27T23:05:54.333Z,99347.00
2022-09-27T23:08:39.703Z,99340.38
2022-09-27T23:11:25.088Z,99355.72
2022-09-27T23:14:11.199Z,99342.59
2022-09-27T23:16:56.614Z,99352.03
2022-09-27T23:19:42.455Z,99349.22
2022-09-27T23:22:28.516Z,99347.13
2022-09-27T23:25:14.140Z,99344.69
2022-09-27T23:27:59.892Z,99351.41
2022-09-27T23:30:45.639Z,99330.66
2022-09-27T23:33:31.159Z,99330.88
2022-09-27T23:36:18.801Z,99336.63
2022-09-27T23:39:04.044Z,99341.91
2022-09-27T23:41:49.564Z,99334.50
2022-09-27T23:44:34.740Z,99343.31
2022-09-27T23:47:20.363Z,99335.47
2022-09-27T23:50:06.349Z,99342.81
2022-09-27T23:52:52.033Z,99333.47
2022-09-27T23:55:37.253Z,99325.50
2022-09-27T23:58:22.934Z,99328.75
